Time;durP1;ratioP1;P1;durP2;ratioP2;P2;SDS_P1;SDS_P2;PMS_P1;PMS_P2;Temp;Humidity;BMP_temperature;BMP_pressure;BME280_temperature;BME280_humidity;BME280_pressure;Samples;Min_cycle;Max_cycle;Signal;HPM_P1;HPM_P2
2022/06/29 00:00:51;;;;;;;;;;;18.10;31.10;;;;;;5053199;28;19996;-75
2022/06/29 00:03:16;;;;;;;;;;;18.20;31.50;;;;;;5053292;28;19955;-74
2022/06/29 00:05:42;;;;;;;;;;;18.10;31.30;;;;;;5053528;28;19905;-75
2022/06/29 00:08:08;;;;;;;;;;;18.10;31.10;;;;;;5053433;28;19904;-73
2022/06/29 00:10:34;;;;;;;;;;;18.20;31.20;;;;;;5054504;28;19909;-73
2022/06/29 00:12:59;;;;;;;;;;;18.30;31.10;;;;;;5053721;28;19908;-74
2022/06/29 00:15:25;;;;;;;;;;;18.10;31.40;;;;;;5053459;28;19965;-73
2022/06/29 00:17:51;;;;;;;;;;;18.10;32.10;;;;;;5052947;28;19904;-74
2022/06/29 00:20:16;;;;;;;;;;;17.90;34.00;;;;;;5052956;28;19908;-72
2022/06/29 00:22:42;;;;;;;;;;;17.80;34.50;;;;;;5051185;28;19911;-74
2022/06/29 00:25:09;;;;;;;;;;;17.70;35.30;;;;;;5053175;28;20002;-75
2022/06/29 00:27:35;;;;;;;;;;;17.60;35.90;;;;;;5051872;28;20452;-73
2022/06/29 00:30:01;;;;;;;;;;;17.60;36.10;;;;;;5052806;28;19905;-73
2022/06/29 00:32:26;;;;;;;;;;;17.50;36.50;;;;;;5051780;28;19909;-73
2022/06/29 00:34:52;;;;;;;;;;;17.50;37.00;;;;;;5052910;28;19955;-73
2022/06/29 00:37:17;;;;;;;;;;;17.40;37.40;;;;;;5053287;28;19940;-73
2022/06/29 00:39:43;;;;;;;;;;;17.30;37.90;;;;;;5052949;28;19905;-72
2022/06/29 00:42:08;;;;;;;;;;;17.30;38.00;;;;;;5053092;28;19911;-74
2022/06/29 00:44:34;;;;;;;;;;;17.30;37.40;;;;;;5053747;28;19930;-75
2022/06/29 00:47:01;;;;;;;;;;;17.30;37.30;;;;;;5053918;28;19912;-75
2022/06/29 00:49:29;;;;;;;;;;;17.30;37.20;;;;;;5063788;22;19993;-74
2022/06/29 00:52:08;;;;;;;;;;;17.50;36.00;;;;;;5051970;28;19905;-73
2022/06/29 00:54:41;;;;;;;;;;;17.60;35.10;;;;;;5052217;28;20288;-73
2022/06/29 00:57:08;;;;;;;;;;;17.50;35.10;;;;;;5052489;28;19928;-74
2022/06/29 00:59:42;;;;;;;;;;;17.60;35.20;;;;;;5053415;28;19931;-73
2022/06/29 01:02:08;;;;;;;;;;;17.60;36.10;;;;;;5053655;28;19904;-75
2022/06/29 01:04:34;;;;;;;;;;;17.70;35.20;;;;;;5059234;28;20364;-74
2022/06/29 01:06:59;;;;;;;;;;;17.80;33.80;;;;;;5058670;28;19904;-74
2022/06/29 01:09:25;;;;;;;;;;;17.90;33.70;;;;;;5057852;28;19905;-75
2022/06/29 01:11:50;;;;;;;;;;;18.00;33.50;;;;;;5057776;28;19905;-74
2022/06/29 01:14:16;;;;;;;;;;;17.80;33.90;;;;;;5056668;28;20087;-74
2022/06/29 01:16:42;;;;;;;;;;;17.70;34.30;;;;;;5058727;28;19905;-74
2022/06/29 01:19:07;;;;;;;;;;;17.60;35.10;;;;;;5059349;28;19995;-74
2022/06/29 01:21:35;;;;;;;;;;;17.50;35.60;;;;;;5056088;28;19912;-74
2022/06/29 01:24:01;;;;;;;;;;;17.50;36.40;;;;;;5055983;28;19904;-74
2022/06/29 01:26:26;;;;;;;;;;;17.70;36.60;;;;;;5055819;28;19958;-73
2022/06/29 01:28:51;;;;;;;;;;;17.80;36.40;;;;;;5055725;28;19905;-74
2022/06/29 01:31:17;;;;;;;;;;;17.70;36.40;;;;;;5055681;28;19928;-74
2022/06/29 01:33:43;;;;;;;;;;;17.70;37.10;;;;;;5056153;28;19905;-74
2022/06/29 01:36:09;;;;;;;;;;;17.60;37.70;;;;;;5055790;28;20459;-74
2022/06/29 01:38:35;;;;;;;;;;;17.50;39.20;;;;;;5055692;28;19999;-74
2022/06/29 01:41:01;;;;;;;;;;;17.40;39.90;;;;;;5055619;28;20226;-74
2022/06/29 01:43:26;;;;;;;;;;;17.40;40.70;;;;;;5056030;28;19905;-73
2022/06/29 01:45:52;;;;;;;;;;;17.40;40.40;;;;;;5055527;28;20373;-73
2022/06/29 01:48:17;;;;;;;;;;;17.20;41.10;;;;;;5055344;28;19904;-72
2022/06/29 01:50:43;;;;;;;;;;;17.10;42.10;;;;;;5053840;28;19923;-73
2022/06/29 01:53:09;;;;;;;;;;;17.20;41.80;;;;;;5055289;28;20376;-73
2022/06/29 01:55:34;;;;;;;;;;;17.10;43.00;;;;;;5055249;28;20007;-75
2022/06/29 01:57:59;;;;;;;;;;;16.90;43.70;;;;;;5055291;28;19916;-74
2022/06/29 02:00:25;;;;;;;;;;;16.80;43.40;;;;;;5055406;28;19904;-74
2022/06/29 02:02:50;;;;;;;;;;;16.70;44.50;;;;;;5055076;28;19905;-74
2022/06/29 02:05:16;;;;;;;;;;;16.70;45.10;;;;;;5055394;28;19982;-76
2022/06/29 02:07:41;;;;;;;;;;;16.60;45.30;;;;;;5055396;28;19911;-73
2022/06/29 02:10:07;;;;;;;;;;;16.70;44.40;;;;;;5054978;28;19905;-73
2022/06/29 02:12:33;;;;;;;;;;;16.70;44.80;;;;;;5054923;28;19905;-74
2022/06/29 02:14:58;;;;;;;;;;;16.60;46.00;;;;;;5054849;28;20342;-73
2022/06/29 02:17:24;;;;;;;;;;;16.50;47.70;;;;;;5054931;28;19965;-74
2022/06/29 02:19:49;;;;;;;;;;;16.60;46.90;;;;;;5054837;28;20011;-74
2022/06/29 02:22:15;;;;;;;;;;;16.50;47.30;;;;;;5054610;28;19974;-74
2022/06/29 02:24:40;;;;;;;;;;;16.30;48.70;;;;;;5054718;28;20368;-73
2022/06/29 02:27:05;;;;;;;;;;;16.20;49.80;;;;;;5053381;28;20000;-74
2022/06/29 02:29:31;;;;;;;;;;;16.10;50.70;;;;;;5054607;28;19905;-74
2022/06/29 02:34:43;;;;;;;;;;;16.00;51.90;;;;;;5054730;28;19919;-74
2022/06/29 02:37:13;;;;;;;;;;;16.00;52.10;;;;;;5054757;28;20335;-75
2022/06/29 02:39:38;;;;;;;;;;;15.90;52.70;;;;;;5054503;28;20417;-73
2022/06/29 02:42:04;;;;;;;;;;;15.90;52.70;;;;;;5054217;28;19996;-73
2022/06/29 02:44:30;;;;;;;;;;;15.80;53.70;;;;;;5054393;28;19905;-73
2022/06/29 02:46:55;;;;;;;;;;;15.80;55.40;;;;;;5054580;28;19912;-73
2022/06/29 02:49:21;;;;;;;;;;;15.80;55.40;;;;;;5054612;28;19920;-74
2022/06/29 02:51:47;;;;;;;;;;;15.80;55.70;;;;;;5054445;28;19905;-74
2022/06/29 02:54:12;;;;;;;;;;;15.70;55.70;;;;;;5054112;28;19904;-74
2022/06/29 02:56:38;;;;;;;;;;;15.80;55.60;;;;;;5054097;28;20317;-73
2022/06/29 02:59:04;;;;;;;;;;;15.80;56.00;;;;;;5054103;28;19909;-74
2022/06/29 03:01:29;;;;;;;;;;;15.80;57.00;;;;;;5053893;28;20369;-74
2022/06/29 03:03:55;;;;;;;;;;;15.80;57.40;;;;;;5054339;28;20008;-75
2022/06/29 03:06:20;;;;;;;;;;;15.90;57.20;;;;;;5052635;28;19909;-74
2022/06/29 03:08:45;;;;;;;;;;;15.90;57.40;;;;;;5054423;28;19905;-75
2022/06/29 03:11:11;;;;;;;;;;;15.90;58.30;;;;;;5056070;28;20284;-74
2022/06/29 03:13:37;;;;;;;;;;;15.90;59.60;;;;;;5059694;28;19904;-74
2022/06/29 03:16:02;;;;;;;;;;;16.10;57.40;;;;;;5054831;28;19908;-74
2022/06/29 03:18:28;;;;;;;;;;;16.00;57.50;;;;;;5052872;28;19912;-75
2022/06/29 03:20:53;;;;;;;;;;;15.90;59.10;;;;;;5052658;28;19915;-73
2022/06/29 03:23:19;;;;;;;;;;;15.90;59.50;;;;;;5054540;28;19908;-74
2022/06/29 03:25:44;;;;;;;;;;;15.80;60.80;;;;;;5054645;28;20326;-74
2022/06/29 03:28:10;;;;;;;;;;;15.80;62.60;;;;;;5054263;28;19915;-74
2022/06/29 03:30:35;;;;;;;;;;;15.80;62.00;;;;;;5054366;28;20312;-74
2022/06/29 03:33:01;;;;;;;;;;;15.70;61.90;;;;;;5054388;28;19904;-74
2022/06/29 03:35:26;;;;;;;;;;;15.80;62.10;;;;;;5054024;28;20337;-76
2022/06/29 03:37:52;;;;;;;;;;;15.80;60.80;;;;;;5053063;28;19911;-73
2022/06/29 03:40:17;;;;;;;;;;;15.70;60.50;;;;;;5053482;28;19911;-72
2022/06/29 03:42:43;;;;;;;;;;;15.80;59.10;;;;;;5053323;28;19920;-73
2022/06/29 03:45:08;;;;;;;;;;;15.80;58.60;;;;;;5053270;28;19916;-73
2022/06/29 03:47:34;;;;;;;;;;;15.80;57.80;;;;;;5053163;28;20258;-73
2022/06/29 03:49:59;;;;;;;;;;;15.90;57.00;;;;;;5052763;28;20062;-74
2022/06/29 03:52:25;;;;;;;;;;;15.90;56.20;;;;;;5052801;28;19937;-74
2022/06/29 03:54:50;;;;;;;;;;;15.90;56.20;;;;;;5051705;28;19963;-73
2022/06/29 03:57:16;;;;;;;;;;;15.90;56.20;;;;;;5052866;28;19905;-73
2022/06/29 03:59:41;;;;;;;;;;;15.90;56.90;;;;;;5052778;28;20266;-74
2022/06/29 04:02:07;;;;;;;;;;;15.90;57.10;;;;;;5052771;28;19999;-75
2022/06/29 04:04:32;;;;;;;;;;;15.90;56.70;;;;;;5053010;28;20269;-73
2022/06/29 04:06:58;;;;;;;;;;;16.00;56.70;;;;;;5052786;28;19966;-73
2022/06/29 04:09:23;;;;;;;;;;;16.00;56.50;;;;;;5052837;28;19940;-74
2022/06/29 04:11:49;;;;;;;;;;;16.20;55.50;;;;;;5052989;28;19905;-73
2022/06/29 04:14:22;;;;;;;;;;;16.40;52.80;;;;;;5052578;28;20287;-74
2022/06/29 04:16:48;;;;;;;;;;;16.40;52.50;;;;;;5053063;28;19905;-74
2022/06/29 04:19:13;;;;;;;;;;;16.40;52.40;;;;;;5052804;28;20317;-75
2022/06/29 04:21:39;;;;;;;;;;;16.40;52.30;;;;;;5051199;28;19905;-73
2022/06/29 04:24:05;;;;;;;;;;;16.40;52.20;;;;;;5051336;28;19966;-73
2022/06/29 04:26:30;;;;;;;;;;;16.50;51.80;;;;;;5053278;28;19908;-74
2022/06/29 04:28:56;;;;;;;;;;;16.50;52.30;;;;;;5052348;28;19940;-76
2022/06/29 04:31:21;;;;;;;;;;;16.50;52.20;;;;;;5052312;28;20445;-75
2022/06/29 04:33:46;;;;;;;;;;;16.40;53.40;;;;;;5052613;28;19908;-72
2022/06/29 04:36:12;;;;;;;;;;;16.30;54.50;;;;;;5052446;28;20353;-76
2022/06/29 04:38:37;;;;;;;;;;;16.40;55.10;;;;;;5053021;28;20225;-73
2022/06/29 04:41:03;;;;;;;;;;;16.40;54.10;;;;;;5052805;28;19912;-74
2022/06/29 04:43:29;;;;;;;;;;;16.60;51.50;;;;;;5052655;28;19905;-74
2022/06/29 04:48:39;;;;;;;;;;;16.70;50.10;;;;;;5051594;28;19965;-74
2022/06/29 04:51:04;;;;;;;;;;;16.70;50.00;;;;;;5051614;28;19938;-74
2022/06/29 04:53:30;;;;;;;;;;;16.70;51.20;;;;;;5052212;28;19905;-74
2022/06/29 04:55:55;;;;;;;;;;;16.70;53.20;;;;;;5052182;28;19912;-75
2022/06/29 04:58:21;;;;;;;;;;;16.70;53.40;;;;;;5051775;28;20405;-76
2022/06/29 05:00:46;;;;;;;;;;;16.80;53.60;;;;;;5052140;28;19960;-77
2022/06/29 05:03:12;;;;;;;;;;;16.80;52.60;;;;;;5051935;28;19905;-73
2022/06/29 05:05:37;;;;;;;;;;;16.90;52.40;;;;;;5051816;28;20273;-74
2022/06/29 05:08:03;;;;;;;;;;;16.90;52.00;;;;;;5050461;28;19975;-74
2022/06/29 05:10:28;;;;;;;;;;;17.10;51.60;;;;;;5051813;28;19905;-75
2022/06/29 05:12:54;;;;;;;;;;;17.10;51.10;;;;;;5052324;28;20177;-74
2022/06/29 05:15:19;;;;;;;;;;;17.30;49.80;;;;;;5053700;28;19912;-74
2022/06/29 05:17:46;;;;;;;;;;;17.50;48.20;;;;;;5052931;28;20395;-76
2022/06/29 05:20:12;;;;;;;;;;;17.50;49.20;;;;;;5051663;28;20072;-75
2022/06/29 05:22:37;;;;;;;;;;;17.60;48.60;;;;;;5050772;28;20008;-75
2022/06/29 05:25:03;;;;;;;;;;;17.70;47.70;;;;;;5051560;28;20426;-75
2022/06/29 05:27:29;;;;;;;;;;;17.80;46.20;;;;;;5051828;28;19916;-74
2022/06/29 05:29:54;;;;;;;;;;;18.00;45.40;;;;;;5051602;28;19923;-75
2022/06/29 05:32:20;;;;;;;;;;;18.20;44.30;;;;;;5051871;28;19924;-75
2022/06/29 05:34:45;;;;;;;;;;;18.30;42.70;;;;;;5051351;28;19912;-74
2022/06/29 05:37:11;;;;;;;;;;;18.50;40.50;;;;;;5051723;28;20271;-75
2022/06/29 05:39:37;;;;;;;;;;;18.70;40.10;;;;;;5058716;28;19904;-77
2022/06/29 05:42:03;;;;;;;;;;;18.90;38.70;;;;;;5050941;28;20269;-76
2022/06/29 05:44:28;;;;;;;;;;;19.00;38.30;;;;;;5052294;28;19905;-76
2022/06/29 05:46:54;;;;;;;;;;;19.10;37.80;;;;;;5052514;28;19912;-76
2022/06/29 05:49:19;;;;;;;;;;;19.10;37.80;;;;;;5052050;28;19944;-77
2022/06/29 05:51:45;;;;;;;;;;;19.00;37.50;;;;;;5049277;28;19908;-76
2022/06/29 05:54:10;;;;;;;;;;;19.00;37.20;;;;;;5048994;28;20384;-77
2022/06/29 05:56:36;;;;;;;;;;;18.90;37.40;;;;;;5049691;28;19959;-76
2022/06/29 05:59:01;;;;;;;;;;;18.90;38.30;;;;;;5049752;28;19909;-77
2022/06/29 06:01:28;;;;;;;;;;;18.80;39.10;;;;;;5053630;28;19950;-77
2022/06/29 06:03:53;;;;;;;;;;;18.70;39.80;;;;;;5056983;28;20348;-77
2022/06/29 06:06:18;;;;;;;;;;;18.70;40.60;;;;;;5052564;28;19908;-75
2022/06/29 06:08:44;;;;;;;;;;;18.70;40.70;;;;;;5053627;28;19971;-76
2022/06/29 06:11:09;;;;;;;;;;;18.80;40.20;;;;;;5053170;28;19908;-76
2022/06/29 06:13:35;;;;;;;;;;;18.90;40.90;;;;;;5054151;28;19924;-75
2022/06/29 06:16:00;;;;;;;;;;;19.00;40.10;;;;;;5053044;28;19934;-76
2022/06/29 06:18:26;;;;;;;;;;;19.20;39.50;;;;;;5053838;28;19908;-76
2022/06/29 06:20:51;;;;;;;;;;;19.40;39.20;;;;;;5053452;28;19958;-75
2022/06/29 06:23:17;;;;;;;;;;;19.60;37.80;;;;;;5053069;28;19935;-76
2022/06/29 06:25:42;;;;;;;;;;;19.60;36.80;;;;;;5053170;28;19936;-76
2022/06/29 06:28:08;;;;;;;;;;;19.80;37.50;;;;;;5052967;28;19962;-76
2022/06/29 06:30:33;;;;;;;;;;;20.00;35.20;;;;;;5052895;28;20003;-76
2022/06/29 06:32:59;;;;;;;;;;;20.30;33.50;;;;;;5052765;28;19963;-76
2022/06/29 06:35:25;;;;;;;;;;;20.70;32.20;;;;;;5053192;28;19962;-75
2022/06/29 06:37:52;;;;;;;;;;;20.80;30.80;;;;;;5052512;28;19975;-76
2022/06/29 06:43:02;;;;;;;;;;;21.20;27.80;;;;;;5032557;28;19928;-76
2022/06/29 06:45:27;;;;;;;;;;;21.50;26.70;;;;;;5047427;28;19913;-76
2022/06/29 06:47:53;;;;;;;;;;;21.90;24.60;;;;;;5051965;28;19917;-77
2022/06/29 06:50:18;;;;;;;;;;;22.20;24.20;;;;;;5017499;22;20040;-76
2022/06/29 06:52:44;;;;;;;;;;;22.40;23.30;;;;;;4976792;28;19906;-75
2022/06/29 06:55:09;;;;;;;;;;;22.50;22.60;;;;;;4997740;28;19985;-73
2022/06/29 06:57:35;;;;;;;;;;;22.60;22.00;;;;;;4981734;28;19910;-75
2022/06/29 07:00:01;;;;;;;;;;;22.70;19.70;;;;;;4978752;28;20145;-75
2022/06/29 07:02:26;;;;;;;;;;;22.70;19.10;;;;;;4968671;28;20355;-74
2022/06/29 07:04:52;;;;;;;;;;;22.70;18.50;;;;;;4962273;28;20286;-74
2022/06/29 07:07:17;;;;;;;;;;;22.60;17.40;;;;;;4960907;28;19910;-74
2022/06/29 07:09:43;;;;;;;;;;;22.60;17.70;;;;;;4953575;28;20044;-72
2022/06/29 07:12:09;;;;;;;;;;;22.60;18.00;;;;;;4959802;28;19910;-76
2022/06/29 07:14:34;;;;;;;;;;;22.70;19.30;;;;;;4958292;28;19910;-73
2022/06/29 07:17:00;;;;;;;;;;;22.80;18.70;;;;;;4969035;28;19914;-72
2022/06/29 07:19:25;;;;;;;;;;;22.90;18.40;;;;;;4957809;28;19910;-72
2022/06/29 07:21:50;;;;;;;;;;;22.90;18.40;;;;;;4954014;28;20390;-72
2022/06/29 07:24:16;;;;;;;;;;;22.90;19.50;;;;;;4954094;28;20432;-74
2022/06/29 07:26:41;;;;;;;;;;;22.90;19.20;;;;;;4952166;29;19914;-72
2022/06/29 07:29:07;;;;;;;;;;;22.90;20.10;;;;;;4952693;29;20259;-73
2022/06/29 07:31:33;;;;;;;;;;;23.00;18.80;;;;;;4952388;29;20008;-73
2022/06/29 07:33:58;;;;;;;;;;;23.00;17.90;;;;;;4952553;29;19906;-74
2022/06/29 07:36:25;;;;;;;;;;;22.90;18.30;;;;;;4951689;29;19972;-73
2022/06/29 07:38:51;;;;;;;;;;;22.90;18.30;;;;;;4960537;28;19968;-74
2022/06/29 07:41:17;;;;;;;;;;;22.90;18.20;;;;;;4970542;28;19954;-74
2022/06/29 07:43:43;;;;;;;;;;;22.90;18.80;;;;;;4971145;28;19960;-73
2022/06/29 07:46:09;;;;;;;;;;;22.90;18.90;;;;;;4969566;28;19906;-74
2022/06/29 07:48:35;;;;;;;;;;;23.00;18.70;;;;;;4971108;28;19928;-76
2022/06/29 07:51:00;;;;;;;;;;;23.00;18.50;;;;;;4958706;28;19914;-73
2022/06/29 07:53:26;;;;;;;;;;;23.00;18.60;;;;;;4952366;29;20010;-73
2022/06/29 07:55:51;;;;;;;;;;;22.90;18.50;;;;;;4956713;28;19925;-72
2022/06/29 07:58:17;;;;;;;;;;;22.90;19.10;;;;;;4952241;28;19906;-74
2022/06/29 08:00:43;;;;;;;;;;;23.00;18.60;;;;;;4950622;28;19933;-74
2022/06/29 08:03:08;;;;;;;;;;;23.00;18.10;;;;;;4950781;29;20177;-76
2022/06/29 08:05:34;;;;;;;;;;;23.10;18.00;;;;;;4950987;29;20389;-73
2022/06/29 08:08:00;;;;;;;;;;;23.10;18.30;;;;;;4948818;29;19906;-73
2022/06/29 08:10:26;;;;;;;;;;;23.20;18.20;;;;;;4949320;28;19928;-75
2022/06/29 08:12:51;;;;;;;;;;;23.30;18.80;;;;;;4958219;28;20243;-73
2022/06/29 08:15:17;;;;;;;;;;;23.50;17.60;;;;;;4969145;28;19941;-75
2022/06/29 08:17:43;;;;;;;;;;;23.40;17.50;;;;;;4952568;28;19917;-73
2022/06/29 08:20:09;;;;;;;;;;;23.30;18.30;;;;;;4950981;29;19906;-72
2022/06/29 08:22:34;;;;;;;;;;;23.30;18.00;;;;;;4951663;29;20260;-74
2022/06/29 08:25:00;;;;;;;;;;;23.30;17.90;;;;;;4952226;28;20005;-74
2022/06/29 08:27:26;;;;;;;;;;;23.30;18.10;;;;;;4951451;29;20292;-75
2022/06/29 08:29:51;;;;;;;;;;;23.30;16.80;;;;;;4950759;28;20342;-75
2022/06/29 08:32:17;;;;;;;;;;;23.30;16.90;;;;;;4968073;28;19928;-73
2022/06/29 08:34:42;;;;;;;;;;;23.40;17.50;;;;;;4969973;28;20456;-74
2022/06/29 08:37:08;;;;;;;;;;;23.30;18.90;;;;;;4965677;28;20008;-73
2022/06/29 08:39:34;;;;;;;;;;;23.30;19.10;;;;;;4969442;28;19917;-74
2022/06/29 08:42:04;;;;;;;;;;;23.40;18.50;;;;;;4966677;28;19948;-75
2022/06/29 08:44:32;;;;;;;;;;;23.30;17.90;;;;;;4967751;28;19910;-73
2022/06/29 08:46:58;;;;;;;;;;;23.40;18.50;;;;;;4957164;28;20385;-73
2022/06/29 08:49:24;;;;;;;;;;;23.50;19.30;;;;;;4958313;28;19914;-74
2022/06/29 08:51:51;;;;;;;;;;;23.50;18.30;;;;;;4969473;28;20349;-73
2022/06/29 08:54:17;;;;;;;;;;;23.60;17.50;;;;;;4960431;28;20276;-72
2022/06/29 08:56:43;;;;;;;;;;;23.70;17.60;;;;;;4969535;28;19910;-75
2022/06/29 08:59:09;;;;;;;;;;;23.70;16.80;;;;;;4970364;28;19907;-73
2022/06/29 09:01:36;;;;;;;;;;;23.70;16.60;;;;;;4968507;28;19932;-73
2022/06/29 09:04:02;;;;;;;;;;;23.60;17.20;;;;;;4969021;28;19909;-73
2022/06/29 09:06:27;;;;;;;;;;;23.60;17.70;;;;;;4951175;28;19996;-74
2022/06/29 09:08:53;;;;;;;;;;;23.60;17.50;;;;;;4950375;29;19942;-72
2022/06/29 09:11:28;;;;;;;;;;;23.60;17.70;;;;;;4966676;28;19997;-73
2022/06/29 09:14:10;;;;;;;;;;;23.50;18.10;;;;;;4952402;28;19922;-74
2022/06/29 09:17:05;;;;;;;;;;;23.60;19.00;;;;;;4956944;28;19919;-73
2022/06/29 09:19:37;;;;;;;;;;;23.60;18.70;;;;;;4958399;28;19914;-73
2022/06/29 09:22:03;;;;;;;;;;;23.50;18.10;;;;;;4950595;28;20326;-74
2022/06/29 09:24:29;;;;;;;;;;;23.40;19.20;;;;;;4950441;28;19917;-73
2022/06/29 09:26:59;;;;;;;;;;;23.30;18.50;;;;;;5029659;28;19912;-73
2022/06/29 09:29:26;;;;;;;;;;;23.40;18.20;;;;;;4989762;28;20274;-73
2022/06/29 09:32:04;;;;;;;;;;;23.40;17.90;;;;;;4968195;28;19970;-72
2022/06/29 09:34:30;;;;;;;;;;;23.50;17.90;;;;;;4959741;28;19910;-74
2022/06/29 09:36:56;;;;;;;;;;;23.60;17.80;;;;;;4972868;28;19921;-72
2022/06/29 09:39:38;;;;;;;;;;;23.80;18.10;;;;;;4969060;28;19918;-73
2022/06/29 09:42:04;;;;;;;;;;;24.00;17.60;;;;;;4953514;28;19910;-74
2022/06/29 09:44:29;;;;;;;;;;;24.20;16.60;;;;;;4954975;28;20016;-74
2022/06/29 09:46:56;;;;;;;;;;;24.30;15.50;;;;;;4963675;28;20029;-73
2022/06/29 09:49:25;;;;;;;;;;;24.60;16.30;;;;;;4961835;28;20365;-73
2022/06/29 09:51:53;;;;;;;;;;;24.80;15.50;;;;;;4956524;28;19914;-73
2022/06/29 09:54:20;;;;;;;;;;;25.00;15.10;;;;;;4957186;29;20211;-72
2022/06/29 09:56:49;;;;;;;;;;;25.20;14.30;;;;;;4953893;29;19921;-73
2022/06/29 09:59:21;;;;;;;;;;;25.60;13.90;;;;;;4961856;28;19914;-73
2022/06/29 10:04:31;;;;;;;;;;;26.60;12.80;;;;;;4972304;28;19952;-72
2022/06/29 10:06:57;;;;;;;;;;;26.90;10.90;;;;;;4970222;28;20355;-74
2022/06/29 10:09:22;;;;;;;;;;;27.10;11.20;;;;;;4971707;28;19909;-73
2022/06/29 10:14:41;;;;;;;;;;;27.40;10.10;;;;;;4971437;28;19974;-74
2022/06/29 10:17:14;;;;;;;;;;;27.30;10.10;;;;;;4953679;28;19919;-73
2022/06/29 10:19:40;;;;;;;;;;;27.20;10.40;;;;;;4965325;28;20314;-73
2022/06/29 10:22:05;;;;;;;;;;;27.20;10.60;;;;;;4970490;28;19914;-74
2022/06/29 10:24:31;;;;;;;;;;;27.30;10.90;;;;;;4960600;28;20294;-73
2022/06/29 10:27:04;;;;;;;;;;;27.40;10.00;;;;;;4952371;29;19926;-75
2022/06/29 10:29:29;;;;;;;;;;;27.70;10.00;;;;;;4952492;29;20351;-75
2022/06/29 10:31:56;;;;;;;;;;;28.10;9.30;;;;;;4957213;28;20069;-74
2022/06/29 10:34:28;;;;;;;;;;;28.20;9.60;;;;;;4970892;28;19993;-73
2022/06/29 10:37:02;;;;;;;;;;;28.40;8.60;;;;;;4971593;28;19964;-74
2022/06/29 10:39:43;;;;;;;;;;;28.40;7.90;;;;;;4967251;28;20337;-73
2022/06/29 10:44:59;;;;;;;;;;;28.60;8.00;;;;;;4951701;29;20006;-74
2022/06/29 10:47:25;;;;;;;;;;;28.70;7.30;;;;;;4949891;28;19997;-75
2022/06/29 10:50:29;;;;;;;;;;;28.80;7.60;;;;;;4953585;28;19918;-74
2022/06/29 10:52:56;;;;;;;;;;;29.00;8.10;;;;;;5030341;28;19952;-74
2022/06/29 10:55:22;;;;;;;;;;;29.30;6.90;;;;;;5034149;28;19957;-75
2022/06/29 10:57:47;;;;;;;;;;;29.40;7.20;;;;;;5013308;28;20383;-76
2022/06/29 11:00:23;;;;;;;;;;;29.40;7.80;;;;;;4987914;28;20309;-72
2022/06/29 11:02:49;;;;;;;;;;;29.40;7.80;;;;;;5001874;28;19906;-75
2022/06/29 11:05:14;;;;;;;;;;;29.40;7.40;;;;;;4969506;28;19910;-75
2022/06/29 11:13:24;;;;;;;;;;;30.00;7.40;;;;;;4984759;28;20409;-73
2022/06/29 11:15:51;;;;;;;;;;;30.40;5.70;;;;;;4996617;28;19918;-74
2022/06/29 11:18:19;;;;;;;;;;;30.20;6.80;;;;;;4970227;28;20359;-75
2022/06/29 11:20:48;;;;;;;;;;;29.70;6.20;;;;;;4970754;28;20374;-75
2022/06/29 11:23:15;;;;;;;;;;;29.30;7.20;;;;;;4969960;28;19917;-74
2022/06/29 11:25:43;;;;;;;;;;;29.10;9.30;;;;;;4970385;28;19952;-75
2022/06/29 11:28:16;;;;;;;;;;;29.10;9.10;;;;;;4970188;28;19972;-74
2022/06/29 11:30:41;;;;;;;;;;;28.80;9.10;;;;;;4970315;28;19910;-75
2022/06/29 11:33:11;;;;;;;;;;;28.70;7.90;;;;;;4961769;28;19987;-73
2022/06/29 11:35:37;;;;;;;;;;;28.90;8.60;;;;;;4970536;28;20010;-73
2022/06/29 11:38:05;;;;;;;;;;;29.20;8.20;;;;;;4964423;28;19937;-73
2022/06/29 11:40:36;;;;;;;;;;;29.60;5.60;;;;;;4969999;28;19910;-75
2022/06/29 11:43:05;;;;;;;;;;;30.10;6.50;;;;;;4958074;28;19953;-73
2022/06/29 11:45:46;;;;;;;;;;;30.40;5.40;;;;;;4967087;28;19906;-74
2022/06/29 11:48:12;;;;;;;;;;;30.30;5.80;;;;;;4958892;28;19910;-73
2022/06/29 11:50:42;;;;;;;;;;;30.10;6.60;;;;;;4969658;28;19917;-72
2022/06/29 11:53:07;;;;;;;;;;;29.80;7.40;;;;;;4969614;28;19913;-74
2022/06/29 11:55:39;;;;;;;;;;;29.90;7.10;;;;;;4960868;28;19915;-75
2022/06/29 11:58:07;;;;;;;;;;;29.80;7.10;;;;;;4950110;28;19906;-76
2022/06/29 12:00:36;;;;;;;;;;;29.70;7.40;;;;;;4967422;28;20004;-73
2022/06/29 12:03:01;;;;;;;;;;;29.60;8.20;;;;;;4970377;28;20298;-74
2022/06/29 12:05:27;;;;;;;;;;;29.70;7.80;;;;;;4969599;28;19910;-73
2022/06/29 12:07:52;;;;;;;;;;;29.60;8.50;;;;;;4968188;28;19981;-74
2022/06/29 12:10:18;;;;;;;;;;;29.60;8.90;;;;;;4966725;28;19956;-74
2022/06/29 12:12:43;;;;;;;;;;;29.90;8.80;;;;;;4969354;28;19941;-74
2022/06/29 12:15:09;;;;;;;;;;;29.80;7.20;;;;;;4951768;28;20304;-74
2022/06/29 12:17:36;;;;;;;;;;;29.80;7.60;;;;;;4950203;29;19913;-74
2022/06/29 12:20:03;;;;;;;;;;;29.90;7.70;;;;;;4953789;28;19985;-74
2022/06/29 12:22:29;;;;;;;;;;;30.10;8.30;;;;;;4969370;28;20282;-74
2022/06/29 12:24:54;;;;;;;;;;;30.00;5.50;;;;;;4968469;28;19910;-74
2022/06/29 12:27:20;;;;;;;;;;;30.10;6.60;;;;;;4956091;28;19919;-75
2022/06/29 12:29:45;;;;;;;;;;;30.40;3.40;;;;;;4969489;28;19917;-74
2022/06/29 12:32:11;;;;;;;;;;;30.50;3.70;;;;;;4963294;28;19933;-72
2022/06/29 12:34:36;;;;;;;;;;;30.70;3.80;;;;;;4951029;28;19921;-72
2022/06/29 12:37:03;;;;;;;;;;;30.90;1.70;;;;;;4950094;28;19954;-73
2022/06/29 12:39:30;;;;;;;;;;;31.20;3.30;;;;;;4950095;29;19989;-73
2022/06/29 12:41:55;;;;;;;;;;;31.30;1.90;;;;;;4948543;29;20331;-73
2022/06/29 12:44:21;;;;;;;;;;;31.30;1.00;;;;;;4951122;29;19971;-75
2022/06/29 12:46:47;;;;;;;;;;;31.40;1.00;;;;;;4959312;28;19924;-74
2022/06/29 12:51:41;;;;;;;;;;;31.70;2.00;;;;;;5069788;28;19921;-76
2022/06/29 12:54:06;;;;;;;;;;;31.80;1.40;;;;;;5072040;28;19926;-76
2022/06/29 12:56:32;;;;;;;;;;;32.30;2.10;;;;;;5052985;28;19908;-75
2022/06/29 12:58:57;;;;;;;;;;;32.20;2.20;;;;;;5072002;28;19994;-76
2022/06/29 13:01:23;;;;;;;;;;;31.90;1.60;;;;;;5071956;28;19910;-76
2022/06/29 13:03:48;;;;;;;;;;;31.40;2.90;;;;;;5072118;28;19944;-77
2022/06/29 13:06:14;;;;;;;;;;;31.30;2.40;;;;;;5063867;28;19984;-76
2022/06/29 13:08:39;;;;;;;;;;;31.20;3.30;;;;;;5052263;28;19995;-76
2022/06/29 13:11:05;;;;;;;;;;;31.30;3.10;;;;;;5051321;28;20362;-76
2022/06/29 13:13:30;;;;;;;;;;;31.20;4.20;;;;;;5045315;28;20256;-77
2022/06/29 13:15:56;;;;;;;;;;;31.10;4.00;;;;;;5064943;28;19909;-76
2022/06/29 13:18:22;;;;;;;;;;;31.10;3.60;;;;;;5032849;28;19912;-76
2022/06/29 13:20:47;;;;;;;;;;;31.00;4.90;;;;;;5030738;28;20362;-76
2022/06/29 13:23:14;;;;;;;;;;;31.40;4.80;;;;;;5013882;28;19905;-76
2022/06/29 13:25:39;;;;;;;;;;;31.90;3.00;;;;;;5032731;28;19967;-76
2022/06/29 13:28:05;;;;;;;;;;;32.30;3.20;;;;;;5053185;28;19912;-76
2022/06/29 13:30:30;;;;;;;;;;;32.90;2.80;;;;;;5073019;28;20284;-76
2022/06/29 13:32:56;;;;;;;;;;;33.10;2.00;;;;;;5072350;28;19904;-76
2022/06/29 13:35:22;;;;;;;;;;;32.30;2.40;;;;;;5072815;28;19948;-76
2022/06/29 13:37:47;;;;;;;;;;;31.60;2.80;;;;;;5054184;28;19956;-76
2022/06/29 13:40:13;;;;;;;;;;;31.10;3.40;;;;;;5070281;28;20258;-76
2022/06/29 13:42:39;;;;;;;;;;;30.90;4.60;;;;;;5055790;28;20012;-77
2022/06/29 13:45:05;;;;;;;;;;;31.00;3.90;;;;;;5052712;28;19938;-76
2022/06/29 13:47:30;;;;;;;;;;;31.20;3.90;;;;;;5052778;28;20269;-76
2022/06/29 13:49:56;;;;;;;;;;;31.60;2.90;;;;;;5051947;28;20358;-76
2022/06/29 13:52:21;;;;;;;;;;;32.60;2.00;;;;;;5052946;28;19905;-76
2022/06/29 13:54:46;;;;;;;;;;;33.50;1.00;;;;;;5067813;28;19998;-76
2022/06/29 13:57:12;;;;;;;;;;;34.00;1.00;;;;;;5073391;28;19909;-76
2022/06/29 13:59:38;;;;;;;;;;;34.50;1.00;;;;;;5073467;28;19959;-76
2022/06/29 14:02:04;;;;;;;;;;;34.50;1.00;;;;;;5057148;28;19988;-76
2022/06/29 14:04:29;;;;;;;;;;;34.20;1.00;;;;;;5053431;28;19991;-76
2022/06/29 14:06:55;;;;;;;;;;;34.00;1.00;;;;;;5070164;28;19913;-76
2022/06/29 14:09:21;;;;;;;;;;;33.90;1.00;;;;;;5069541;28;19966;-76
2022/06/29 14:11:46;;;;;;;;;;;34.30;1.00;;;;;;5051247;28;19905;-75
2022/06/29 14:14:12;;;;;;;;;;;34.80;1.00;;;;;;5051511;28;20335;-76
2022/06/29 14:16:39;;;;;;;;;;;35.20;1.00;;;;;;5065834;28;19912;-76
2022/06/29 14:19:05;;;;;;;;;;;35.50;1.00;;;;;;5070995;28;20387;-77
2022/06/29 14:21:30;;;;;;;;;;;35.70;1.00;;;;;;5073545;28;19905;-76
2022/06/29 14:23:56;;;;;;;;;;;36.10;1.00;;;;;;5058079;28;19905;-76
2022/06/29 14:26:22;;;;;;;;;;;36.50;1.00;;;;;;5075502;28;19904;-76
2022/06/29 14:28:48;;;;;;;;;;;37.00;1.00;;;;;;5075268;28;19962;-76
2022/06/29 14:31:13;;;;;;;;;;;37.10;1.00;;;;;;5063699;28;19908;-76
2022/06/29 14:33:39;;;;;;;;;;;37.40;1.00;;;;;;5064176;28;19911;-75
2022/06/29 14:36:04;;;;;;;;;;;37.80;1.00;;;;;;5068802;28;19916;-76
2022/06/29 14:38:30;;;;;;;;;;;38.10;1.00;;;;;;5068848;28;20350;-77
2022/06/29 14:40:55;;;;;;;;;;;38.10;1.00;;;;;;5049107;28;19958;-76